sensor_id;sensor_type;location;lat;lon;timestamp;P1;durP1;ratioP1;P2;durP2;ratioP2
2326;SDS011;1174;51.588;7.328;2022-07-23T00:01:09;13.40;;;4.57;;
2326;SDS011;1174;51.588;7.328;2022-07-23T00:03:36;6.37;;;4.00;;
2326;SDS011;1174;51.588;7.328;2022-07-23T00:06:04;6.67;;;4.20;;
2326;SDS011;1174;51.588;7.328;2022-07-23T00:08:31;8.37;;;4.97;;
2326;SDS011;1174;51.588;7.328;2022-07-23T00:10:58;8.03;;;4.40;;
2326;SDS011;1174;51.588;7.328;2022-07-23T00:13:28;5.17;;;4.13;;
2326;SDS011;1174;51.588;7.328;2022-07-23T00:15:55;5.57;;;3.77;;
2326;SDS011;1174;51.588;7.328;2022-07-23T00:18:22;6.53;;;4.87;;
2326;SDS011;1174;51.588;7.328;2022-07-23T00:20:49;6.97;;;4.87;;
2326;SDS011;1174;51.588;7.328;2022-07-23T00:23:17;6.77;;;4.13;;
2326;SDS011;1174;51.588;7.328;2022-07-23T00:25:44;5.97;;;4.00;;
2326;SDS011;1174;51.588;7.328;2022-07-23T00:28:11;4.47;;;3.97;;
2326;SDS011;1174;51.588;7.328;2022-07-23T00:30:38;8.87;;;4.90;;
2326;SDS011;1174;51.588;7.328;2022-07-23T00:33:06;11.00;;;4.83;;
2326;SDS011;1174;51.588;7.328;2022-07-23T00:35:34;6.57;;;4.70;;
2326;SDS011;1174;51.588;7.328;2022-07-23T00:38:02;3.97;;;3.57;;
2326;SDS011;1174;51.588;7.328;2022-07-23T00:40:31;5.47;;;3.70;;
2326;SDS011;1174;51.588;7.328;2022-07-23T00:42:58;5.07;;;3.87;;
2326;SDS011;1174;51.588;7.328;2022-07-23T00:45:25;5.43;;;3.77;;
2326;SDS011;1174;51.588;7.328;2022-07-23T00:47:52;6.97;;;5.30;;
2326;SDS011;1174;51.588;7.328;2022-07-23T00:50:19;6.20;;;4.47;;
2326;SDS011;1174;51.588;7.328;2022-07-23T00:52:45;8.50;;;4.53;;
2326;SDS011;1174;51.588;7.328;2022-07-23T00:55:13;4.30;;;3.40;;
2326;SDS011;1174;51.588;7.328;2022-07-23T00:57:42;5.83;;;4.03;;
2326;SDS011;1174;51.588;7.328;2022-07-23T01:00:10;5.77;;;4.10;;
2326;SDS011;1174;51.588;7.328;2022-07-23T01:02:39;8.47;;;5.80;;
2326;SDS011;1174;51.588;7.328;2022-07-23T01:05:06;6.10;;;5.00;;
2326;SDS011;1174;51.588;7.328;2022-07-23T01:07:34;7.23;;;4.20;;
2326;SDS011;1174;51.588;7.328;2022-07-23T01:10:02;5.67;;;4.93;;
2326;SDS011;1174;51.588;7.328;2022-07-23T01:12:29;4.97;;;3.97;;
2326;SDS011;1174;51.588;7.328;2022-07-23T01:14:58;5.10;;;4.50;;
2326;SDS011;1174;51.588;7.328;2022-07-23T01:17:25;5.83;;;5.20;;
2326;SDS011;1174;51.588;7.328;2022-07-23T01:19:53;8.03;;;4.63;;
2326;SDS011;1174;51.588;7.328;2022-07-23T01:22:19;9.00;;;5.60;;
2326;SDS011;1174;51.588;7.328;2022-07-23T01:24:48;5.20;;;4.67;;
2326;SDS011;1174;51.588;7.328;2022-07-23T01:27:15;7.00;;;3.53;;
2326;SDS011;1174;51.588;7.328;2022-07-23T01:29:42;5.17;;;4.30;;
2326;SDS011;1174;51.588;7.328;2022-07-23T01:32:09;14.43;;;5.13;;
2326;SDS011;1174;51.588;7.328;2022-07-23T01:34:36;7.40;;;5.07;;
2326;SDS011;1174;51.588;7.328;2022-07-23T01:37:03;10.90;;;5.47;;
2326;SDS011;1174;51.588;7.328;2022-07-23T01:39:29;10.70;;;6.13;;
2326;SDS011;1174;51.588;7.328;2022-07-23T01:41:58;5.70;;;4.80;;
2326;SDS011;1174;51.588;7.328;2022-07-23T01:44:24;7.93;;;4.37;;
2326;SDS011;1174;51.588;7.328;2022-07-23T01:46:51;7.20;;;5.20;;
2326;SDS011;1174;51.588;7.328;2022-07-23T01:49:18;5.50;;;4.50;;
2326;SDS011;1174;51.588;7.328;2022-07-23T01:51:45;5.10;;;4.57;;
2326;SDS011;1174;51.588;7.328;2022-07-23T01:54:25;7.57;;;5.17;;
2326;SDS011;1174;51.588;7.328;2022-07-23T01:56:53;6.67;;;5.23;;
2326;SDS011;1174;51.588;7.328;2022-07-23T01:59:21;8.90;;;5.40;;
2326;SDS011;1174;51.588;7.328;2022-07-23T02:01:49;10.70;;;4.70;;
2326;SDS011;1174;51.588;7.328;2022-07-23T02:04:16;8.57;;;5.23;;
2326;SDS011;1174;51.588;7.328;2022-07-23T02:06:43;11.47;;;6.07;;
2326;SDS011;1174;51.588;7.328;2022-07-23T02:09:10;5.90;;;4.93;;
2326;SDS011;1174;51.588;7.328;2022-07-23T02:11:36;5.93;;;5.00;;
2326;SDS011;1174;51.588;7.328;2022-07-23T02:14:03;7.47;;;5.20;;
2326;SDS011;1174;51.588;7.328;2022-07-23T02:16:31;8.30;;;5.60;;
2326;SDS011;1174;51.588;7.328;2022-07-23T02:18:59;6.27;;;4.77;;
2326;SDS011;1174;51.588;7.328;2022-07-23T02:21:25;8.87;;;7.17;;
2326;SDS011;1174;51.588;7.328;2022-07-23T02:23:52;10.83;;;4.90;;
2326;SDS011;1174;51.588;7.328;2022-07-23T02:26:19;6.90;;;5.27;;
2326;SDS011;1174;51.588;7.328;2022-07-23T02:28:46;11.77;;;5.87;;
2326;SDS011;1174;51.588;7.328;2022-07-23T02:31:13;7.40;;;5.50;;
2326;SDS011;1174;51.588;7.328;2022-07-23T02:33:41;10.07;;;5.67;;
2326;SDS011;1174;51.588;7.328;2022-07-23T02:36:08;9.00;;;5.03;;
2326;SDS011;1174;51.588;7.328;2022-07-23T02:38:35;8.50;;;6.13;;
2326;SDS011;1174;51.588;7.328;2022-07-23T02:41:02;7.43;;;5.80;;
2326;SDS011;1174;51.588;7.328;2022-07-23T02:43:28;8.37;;;6.30;;
2326;SDS011;1174;51.588;7.328;2022-07-23T02:45:55;8.63;;;5.10;;
2326;SDS011;1174;51.588;7.328;2022-07-23T02:48:22;9.43;;;5.80;;
2326;SDS011;1174;51.588;7.328;2022-07-23T02:50:50;9.10;;;6.27;;
2326;SDS011;1174;51.588;7.328;2022-07-23T02:53:17;6.37;;;5.17;;
2326;SDS011;1174;51.588;7.328;2022-07-23T02:55:44;14.40;;;7.63;;
2326;SDS011;1174;51.588;7.328;2022-07-23T02:58:11;8.23;;;5.90;;
2326;SDS011;1174;51.588;7.328;2022-07-23T03:00:38;7.73;;;6.00;;
2326;SDS011;1174;51.588;7.328;2022-07-23T03:03:05;11.30;;;6.20;;
2326;SDS011;1174;51.588;7.328;2022-07-23T03:05:32;7.20;;;6.40;;
2326;SDS011;1174;51.588;7.328;2022-07-23T03:08:00;13.70;;;5.37;;
2326;SDS011;1174;51.588;7.328;2022-07-23T03:10:27;13.50;;;6.47;;
2326;SDS011;1174;51.588;7.328;2022-07-23T03:12:54;8.13;;;6.30;;
2326;SDS011;1174;51.588;7.328;2022-07-23T03:15:21;10.17;;;5.93;;
2326;SDS011;1174;51.588;7.328;2022-07-23T03:17:48;8.37;;;5.47;;
2326;SDS011;1174;51.588;7.328;2022-07-23T03:20:15;9.00;;;5.80;;
2326;SDS011;1174;51.588;7.328;2022-07-23T03:22:42;8.53;;;5.93;;
2326;SDS011;1174;51.588;7.328;2022-07-23T03:25:10;9.20;;;6.07;;
2326;SDS011;1174;51.588;7.328;2022-07-23T03:27:37;13.80;;;6.90;;
2326;SDS011;1174;51.588;7.328;2022-07-23T03:30:04;10.37;;;6.27;;
2326;SDS011;1174;51.588;7.328;2022-07-23T03:32:32;9.40;;;6.57;;
2326;SDS011;1174;51.588;7.328;2022-07-23T03:34:59;10.40;;;6.13;;
2326;SDS011;1174;51.588;7.328;2022-07-23T03:37:27;8.10;;;6.57;;
2326;SDS011;1174;51.588;7.328;2022-07-23T03:39:54;10.50;;;6.50;;
2326;SDS011;1174;51.588;7.328;2022-07-23T03:42:22;10.60;;;5.50;;
2326;SDS011;1174;51.588;7.328;2022-07-23T03:44:49;8.67;;;5.93;;
2326;SDS011;1174;51.588;7.328;2022-07-23T03:47:16;8.27;;;5.97;;
2326;SDS011;1174;51.588;7.328;2022-07-23T03:49:46;10.30;;;5.80;;
2326;SDS011;1174;51.588;7.328;2022-07-23T03:52:13;7.93;;;5.80;;
2326;SDS011;1174;51.588;7.328;2022-07-23T03:54:40;6.90;;;5.70;;
2326;SDS011;1174;51.588;7.328;2022-07-23T03:57:07;7.07;;;5.60;;
2326;SDS011;1174;51.588;7.328;2022-07-23T03:59:35;9.23;;;5.70;;
2326;SDS011;1174;51.588;7.328;2022-07-23T04:02:02;7.20;;;5.60;;
2326;SDS011;1174;51.588;7.328;2022-07-23T04:04:29;14.00;;;6.97;;
2326;SDS011;1174;51.588;7.328;2022-07-23T04:06:55;10.13;;;7.43;;
2326;SDS011;1174;51.588;7.328;2022-07-23T04:09:22;8.30;;;6.83;;
2326;SDS011;1174;51.588;7.328;2022-07-23T04:11:49;12.83;;;6.13;;
2326;SDS011;1174;51.588;7.328;2022-07-23T04:14:16;7.97;;;6.67;;
2326;SDS011;1174;51.588;7.328;2022-07-23T04:16:44;9.63;;;6.80;;
2326;SDS011;1174;51.588;7.328;2022-07-23T04:19:12;8.00;;;6.00;;
2326;SDS011;1174;51.588;7.328;2022-07-23T04:21:38;9.07;;;5.60;;
2326;SDS011;1174;51.588;7.328;2022-07-23T04:24:06;8.70;;;5.73;;
2326;SDS011;1174;51.588;7.328;2022-07-23T04:26:33;7.43;;;5.67;;
2326;SDS011;1174;51.588;7.328;2022-07-23T04:29:00;10.83;;;6.23;;
2326;SDS011;1174;51.588;7.328;2022-07-23T04:31:27;7.83;;;6.40;;
2326;SDS011;1174;51.588;7.328;2022-07-23T04:33:55;13.57;;;6.53;;
2326;SDS011;1174;51.588;7.328;2022-07-23T04:36:25;11.93;;;5.43;;
2326;SDS011;1174;51.588;7.328;2022-07-23T04:38:52;10.37;;;6.33;;
2326;SDS011;1174;51.588;7.328;2022-07-23T04:41:19;11.03;;;7.27;;
2326;SDS011;1174;51.588;7.328;2022-07-23T04:43:46;9.20;;;6.50;;
2326;SDS011;1174;51.588;7.328;2022-07-23T04:46:13;7.40;;;6.00;;
2326;SDS011;1174;51.588;7.328;2022-07-23T04:48:40;10.67;;;6.50;;
2326;SDS011;1174;51.588;7.328;2022-07-23T04:51:09;13.60;;;8.03;;
2326;SDS011;1174;51.588;7.328;2022-07-23T04:53:36;10.13;;;6.53;;
2326;SDS011;1174;51.588;7.328;2022-07-23T04:56:04;8.70;;;5.87;;
2326;SDS011;1174;51.588;7.328;2022-07-23T04:58:31;9.40;;;7.00;;
2326;SDS011;1174;51.588;7.328;2022-07-23T05:00:58;10.00;;;6.90;;
2326;SDS011;1174;51.588;7.328;2022-07-23T05:03:25;9.80;;;6.17;;
2326;SDS011;1174;51.588;7.328;2022-07-23T05:05:52;6.60;;;5.50;;
2326;SDS011;1174;51.588;7.328;2022-07-23T05:08:21;10.97;;;7.73;;
2326;SDS011;1174;51.588;7.328;2022-07-23T05:10:48;11.00;;;7.63;;
2326;SDS011;1174;51.588;7.328;2022-07-23T05:13:15;9.20;;;5.80;;
2326;SDS011;1174;51.588;7.328;2022-07-23T05:15:42;5.70;;;4.87;;
2326;SDS011;1174;51.588;7.328;2022-07-23T05:18:09;7.10;;;4.93;;
2326;SDS011;1174;51.588;7.328;2022-07-23T05:20:37;10.53;;;6.27;;
2326;SDS011;1174;51.588;7.328;2022-07-23T05:23:09;7.60;;;5.07;;
2326;SDS011;1174;51.588;7.328;2022-07-23T05:25:37;11.37;;;4.87;;
2326;SDS011;1174;51.588;7.328;2022-07-23T05:28:05;8.70;;;6.57;;
2326;SDS011;1174;51.588;7.328;2022-07-23T05:30:32;13.07;;;4.93;;
2326;SDS011;1174;51.588;7.328;2022-07-23T05:32:59;6.27;;;4.97;;
2326;SDS011;1174;51.588;7.328;2022-07-23T05:35:26;8.63;;;5.53;;
2326;SDS011;1174;51.588;7.328;2022-07-23T05:37:53;11.63;;;5.53;;
2326;SDS011;1174;51.588;7.328;2022-07-23T05:40:20;6.50;;;4.23;;
2326;SDS011;1174;51.588;7.328;2022-07-23T05:42:48;6.43;;;5.13;;
2326;SDS011;1174;51.588;7.328;2022-07-23T05:45:19;12.43;;;5.30;;
2326;SDS011;1174;51.588;7.328;2022-07-23T05:47:46;10.53;;;5.60;;
2326;SDS011;1174;51.588;7.328;2022-07-23T05:50:14;6.63;;;4.80;;
2326;SDS011;1174;51.588;7.328;2022-07-23T05:52:43;7.43;;;5.47;;
2326;SDS011;1174;51.588;7.328;2022-07-23T05:55:11;8.63;;;5.50;;
2326;SDS011;1174;51.588;7.328;2022-07-23T05:57:38;6.20;;;5.10;;
2326;SDS011;1174;51.588;7.328;2022-07-23T06:00:08;8.37;;;5.27;;
2326;SDS011;1174;51.588;7.328;2022-07-23T06:02:37;9.43;;;4.80;;
2326;SDS011;1174;51.588;7.328;2022-07-23T06:05:04;5.70;;;4.60;;
2326;SDS011;1174;51.588;7.328;2022-07-23T06:07:33;11.13;;;5.57;;
2326;SDS011;1174;51.588;7.328;2022-07-23T06:10:00;5.30;;;4.43;;
2326;SDS011;1174;51.588;7.328;2022-07-23T06:12:27;6.70;;;5.97;;
2326;SDS011;1174;51.588;7.328;2022-07-23T06:14:54;9.73;;;5.30;;
2326;SDS011;1174;51.588;7.328;2022-07-23T06:17:22;7.17;;;4.23;;
2326;SDS011;1174;51.588;7.328;2022-07-23T06:19:49;9.50;;;5.70;;
2326;SDS011;1174;51.588;7.328;2022-07-23T06:22:17;8.20;;;5.50;;
2326;SDS011;1174;51.588;7.328;2022-07-23T06:24:44;6.03;;;4.87;;
2326;SDS011;1174;51.588;7.328;2022-07-23T06:27:11;8.20;;;5.07;;
2326;SDS011;1174;51.588;7.328;2022-07-23T06:29:41;6.50;;;4.77;;
2326;SDS011;1174;51.588;7.328;2022-07-23T06:32:08;10.80;;;6.17;;
2326;SDS011;1174;51.588;7.328;2022-07-23T06:34:37;9.30;;;5.60;;
2326;SDS011;1174;51.588;7.328;2022-07-23T06:37:04;7.00;;;6.03;;
2326;SDS011;1174;51.588;7.328;2022-07-23T06:39:31;7.07;;;5.00;;
2326;SDS011;1174;51.588;7.328;2022-07-23T06:41:58;8.93;;;5.30;;
2326;SDS011;1174;51.588;7.328;2022-07-23T06:44:26;8.20;;;6.50;;
2326;SDS011;1174;51.588;7.328;2022-07-23T06:46:53;6.43;;;5.50;;
2326;SDS011;1174;51.588;7.328;2022-07-23T06:49:20;7.93;;;5.67;;
2326;SDS011;1174;51.588;7.328;2022-07-23T06:51:49;10.20;;;7.07;;
2326;SDS011;1174;51.588;7.328;2022-07-23T06:54:15;9.63;;;6.37;;
2326;SDS011;1174;51.588;7.328;2022-07-23T06:56:43;10.57;;;6.47;;
2326;SDS011;1174;51.588;7.328;2022-07-23T06:59:10;9.53;;;5.77;;
2326;SDS011;1174;51.588;7.328;2022-07-23T07:01:37;6.33;;;5.37;;
2326;SDS011;1174;51.588;7.328;2022-07-23T07:04:03;10.73;;;5.20;;
2326;SDS011;1174;51.588;7.328;2022-07-23T07:06:30;12.00;;;6.90;;
2326;SDS011;1174;51.588;7.328;2022-07-23T07:08:59;8.43;;;7.07;;
2326;SDS011;1174;51.588;7.328;2022-07-23T07:11:26;6.07;;;5.10;;
2326;SDS011;1174;51.588;7.328;2022-07-23T07:13:53;9.93;;;6.83;;
2326;SDS011;1174;51.588;7.328;2022-07-23T07:16:20;8.30;;;5.90;;
2326;SDS011;1174;51.588;7.328;2022-07-23T07:18:47;8.77;;;5.97;;
2326;SDS011;1174;51.588;7.328;2022-07-23T07:21:14;12.03;;;6.60;;
2326;SDS011;1174;51.588;7.328;2022-07-23T07:23:41;11.23;;;6.60;;
2326;SDS011;1174;51.588;7.328;2022-07-23T07:26:09;8.27;;;6.13;;
2326;SDS011;1174;51.588;7.328;2022-07-23T07:28:38;10.10;;;7.57;;
2326;SDS011;1174;51.588;7.328;2022-07-23T07:31:05;9.10;;;6.40;;
2326;SDS011;1174;51.588;7.328;2022-07-23T07:33:32;11.83;;;5.77;;
2326;SDS011;1174;51.588;7.328;2022-07-23T07:35:59;7.60;;;5.50;;
2326;SDS011;1174;51.588;7.328;2022-07-23T07:38:26;13.73;;;5.50;;
2326;SDS011;1174;51.588;7.328;2022-07-23T07:40:53;7.90;;;5.53;;
2326;SDS011;1174;51.588;7.328;2022-07-23T07:43:24;8.10;;;5.40;;
2326;SDS011;1174;51.588;7.328;2022-07-23T07:45:51;7.50;;;5.20;;
2326;SDS011;1174;51.588;7.328;2022-07-23T07:48:18;5.90;;;5.30;;
2326;SDS011;1174;51.588;7.328;2022-07-23T07:50:45;7.57;;;6.37;;
2326;SDS011;1174;51.588;7.328;2022-07-23T07:53:12;8.30;;;5.70;;
2326;SDS011;1174;51.588;7.328;2022-07-23T07:55:39;7.10;;;5.50;;
2326;SDS011;1174;51.588;7.328;2022-07-23T07:58:06;6.70;;;4.87;;
2326;SDS011;1174;51.588;7.328;2022-07-23T08:00:34;7.80;;;4.97;;
2326;SDS011;1174;51.588;7.328;2022-07-23T08:03:02;7.80;;;5.10;;
2326;SDS011;1174;51.588;7.328;2022-07-23T08:05:29;6.67;;;5.17;;
2326;SDS011;1174;51.588;7.328;2022-07-23T08:07:57;4.50;;;4.00;;
2326;SDS011;1174;51.588;7.328;2022-07-23T08:10:25;8.13;;;4.83;;
2326;SDS011;1174;51.588;7.328;2022-07-23T08:12:54;5.20;;;3.80;;
2326;SDS011;1174;51.588;7.328;2022-07-23T08:15:23;7.80;;;4.43;;
2326;SDS011;1174;51.588;7.328;2022-07-23T08:17:52;4.27;;;3.87;;
2326;SDS011;1174;51.588;7.328;2022-07-23T08:20:20;3.90;;;3.10;;
2326;SDS011;1174;51.588;7.328;2022-07-23T08:22:49;7.40;;;3.53;;
2326;SDS011;1174;51.588;7.328;2022-07-23T08:25:20;3.87;;;3.20;;
2326;SDS011;1174;51.588;7.328;2022-07-23T08:27:48;5.07;;;3.43;;
2326;SDS011;1174;51.588;7.328;2022-07-23T08:30:16;2.90;;;2.60;;
2326;SDS011;1174;51.588;7.328;2022-07-23T08:32:48;4.87;;;3.40;;
2326;SDS011;1174;51.588;7.328;2022-07-23T08:35:23;8.07;;;3.50;;
2326;SDS011;1174;51.588;7.328;2022-07-23T08:37:51;4.27;;;3.27;;
2326;SDS011;1174;51.588;7.328;2022-07-23T08:40:18;4.27;;;2.97;;
2326;SDS011;1174;51.588;7.328;2022-07-23T08:42:47;3.20;;;2.70;;
2326;SDS011;1174;51.588;7.328;2022-07-23T08:45:17;2.90;;;2.27;;
2326;SDS011;1174;51.588;7.328;2022-07-23T08:47:46;4.60;;;3.43;;
2326;SDS011;1174;51.588;7.328;2022-07-23T08:50:16;8.93;;;3.13;;
2326;SDS011;1174;51.588;7.328;2022-07-23T08:52:44;4.77;;;3.10;;
2326;SDS011;1174;51.588;7.328;2022-07-23T08:55:11;3.47;;;2.60;;
2326;SDS011;1174;51.588;7.328;2022-07-23T08:57:38;3.67;;;3.33;;
2326;SDS011;1174;51.588;7.328;2022-07-23T09:00:06;4.70;;;3.57;;
2326;SDS011;1174;51.588;7.328;2022-07-23T09:02:40;5.90;;;3.23;;
2326;SDS011;1174;51.588;7.328;2022-07-23T09:05:08;3.37;;;3.07;;
2326;SDS011;1174;51.588;7.328;2022-07-23T09:07:37;3.27;;;2.97;;
2326;SDS011;1174;51.588;7.328;2022-07-23T09:10:08;5.53;;;3.07;;
2326;SDS011;1174;51.588;7.328;2022-07-23T09:12:37;3.27;;;2.97;;
2326;SDS011;1174;51.588;7.328;2022-07-23T09:15:05;8.40;;;3.37;;
2326;SDS011;1174;51.588;7.328;2022-07-23T09:17:43;5.03;;;4.63;;
2326;SDS011;1174;51.588;7.328;2022-07-23T09:20:11;6.47;;;5.90;;
2326;SDS011;1174;51.588;7.328;2022-07-23T09:22:40;13.63;;;5.90;;
2326;SDS011;1174;51.588;7.328;2022-07-23T09:25:12;7.33;;;5.07;;
2326;SDS011;1174;51.588;7.328;2022-07-23T09:27:54;4.97;;;4.43;;
2326;SDS011;1174;51.588;7.328;2022-07-23T09:30:23;8.13;;;4.40;;
2326;SDS011;1174;51.588;7.328;2022-07-23T09:33:08;5.33;;;4.30;;
2326;SDS011;1174;51.588;7.328;2022-07-23T09:35:46;4.93;;;3.37;;
2326;SDS011;1174;51.588;7.328;2022-07-23T09:38:15;7.20;;;5.00;;
2326;SDS011;1174;51.588;7.328;2022-07-23T09:40:44;4.87;;;3.80;;
2326;SDS011;1174;51.588;7.328;2022-07-23T09:43:12;11.00;;;4.77;;
2326;SDS011;1174;51.588;7.328;2022-07-23T09:45:51;4.77;;;4.23;;
2326;SDS011;1174;51.588;7.328;2022-07-23T09:48:21;3.67;;;3.37;;
2326;SDS011;1174;51.588;7.328;2022-07-23T09:50:48;4.83;;;4.17;;
2326;SDS011;1174;51.588;7.328;2022-07-23T09:53:23;3.83;;;3.37;;
2326;SDS011;1174;51.588;7.328;2022-07-23T09:55:53;4.33;;;3.93;;
2326;SDS011;1174;51.588;7.328;2022-07-23T09:58:24;8.30;;;5.17;;
2326;SDS011;1174;51.588;7.328;2022-07-23T10:00:52;4.00;;;3.70;;
2326;SDS011;1174;51.588;7.328;2022-07-23T10:03:20;4.63;;;4.23;;
2326;SDS011;1174;51.588;7.328;2022-07-23T10:05:47;5.33;;;4.83;;
2326;SDS011;1174;51.588;7.328;2022-07-23T10:08:16;4.07;;;3.70;;
2326;SDS011;1174;51.588;7.328;2022-07-23T10:10:45;4.07;;;3.77;;
2326;SDS011;1174;51.588;7.328;2022-07-23T10:13:15;5.93;;;3.50;;
2326;SDS011;1174;51.588;7.328;2022-07-23T10:15:56;3.53;;;3.23;;
2326;SDS011;1174;51.588;7.328;2022-07-23T10:18:23;3.20;;;2.90;;
2326;SDS011;1174;51.588;7.328;2022-07-23T10:20:50;4.10;;;3.63;;
2326;SDS011;1174;51.588;7.328;2022-07-23T10:23:22;10.17;;;3.23;;
2326;SDS011;1174;51.588;7.328;2022-07-23T10:25:58;3.60;;;3.17;;
2326;SDS011;1174;51.588;7.328;2022-07-23T10:31:27;3.50;;;3.20;;
2326;SDS011;1174;51.588;7.328;2022-07-23T10:34:07;5.00;;;3.67;;
2326;SDS011;1174;51.588;7.328;2022-07-23T10:36:59;3.40;;;3.10;;
2326;SDS011;1174;51.588;7.328;2022-07-23T10:39:34;3.10;;;2.67;;
2326;SDS011;1174;51.588;7.328;2022-07-23T10:42:09;4.17;;;3.27;;
2326;SDS011;1174;51.588;7.328;2022-07-23T10:44:47;3.57;;;3.17;;
2326;SDS011;1174;51.588;7.328;2022-07-23T10:47:21;4.37;;;3.57;;
2326;SDS011;1174;51.588;7.328;2022-07-23T10:50:24;2.90;;;2.70;;
2326;SDS011;1174;51.588;7.328;2022-07-23T10:53:13;4.23;;;3.83;;
2326;SDS011;1174;51.588;7.328;2022-07-23T10:55:45;5.47;;;3.43;;
2326;SDS011;1174;51.588;7.328;2022-07-23T10:58:19;5.50;;;3.47;;
2326;SDS011;1174;51.588;7.328;2022-07-23T11:00:52;4.40;;;3.27;;
2326;SDS011;1174;51.588;7.328;2022-07-23T11:03:32;4.20;;;3.00;;
2326;SDS011;1174;51.588;7.328;2022-07-23T11:06:03;3.17;;;2.87;;
2326;SDS011;1174;51.588;7.328;2022-07-23T11:08:31;3.50;;;3.20;;
2326;SDS011;1174;51.588;7.328;2022-07-23T11:13:47;3.53;;;3.13;;
2326;SDS011;1174;51.588;7.328;2022-07-23T11:16:23;2.87;;;2.50;;
2326;SDS011;1174;51.588;7.328;2022-07-23T11:19:04;2.73;;;2.53;;
2326;SDS011;1174;51.588;7.328;2022-07-23T11:21:50;4.40;;;2.50;;
2326;SDS011;1174;51.588;7.328;2022-07-23T11:24:24;3.80;;;3.30;;
2326;SDS011;1174;51.588;7.328;2022-07-23T11:26:53;2.97;;;2.77;;
2326;SDS011;1174;51.588;7.328;2022-07-23T11:29:48;3.20;;;2.90;;
2326;SDS011;1174;51.588;7.328;2022-07-23T11:32:21;5.03;;;2.50;;
2326;SDS011;1174;51.588;7.328;2022-07-23T11:34:54;7.70;;;3.63;;
2326;SDS011;1174;51.588;7.328;2022-07-23T11:40:19;3.30;;;3.10;;
2326;SDS011;1174;51.588;7.328;2022-07-23T11:42:51;3.03;;;2.47;;
2326;SDS011;1174;51.588;7.328;2022-07-23T11:45:22;4.37;;;4.03;;
2326;SDS011;1174;51.588;7.328;2022-07-23T11:47:51;2.47;;;2.17;;
2326;SDS011;1174;51.588;7.328;2022-07-23T11:50:22;3.60;;;2.20;;
2326;SDS011;1174;51.588;7.328;2022-07-23T11:52:50;1.70;;;1.60;;
2326;SDS011;1174;51.588;7.328;2022-07-23T11:55:23;4.67;;;2.03;;
2326;SDS011;1174;51.588;7.328;2022-07-23T11:57:53;2.80;;;2.50;;
2326;SDS011;1174;51.588;7.328;2022-07-23T12:00:21;3.80;;;2.27;;
2326;SDS011;1174;51.588;7.328;2022-07-23T12:02:52;3.63;;;2.50;;
2326;SDS011;1174;51.588;7.328;2022-07-23T12:05:23;2.43;;;2.23;;
2326;SDS011;1174;51.588;7.328;2022-07-23T12:07:51;3.87;;;2.00;;
2326;SDS011;1174;51.588;7.328;2022-07-23T12:10:21;3.37;;;2.10;;
2326;SDS011;1174;51.588;7.328;2022-07-23T12:12:55;2.83;;;2.10;;
2326;SDS011;1174;51.588;7.328;2022-07-23T12:15:24;5.50;;;2.20;;
2326;SDS011;1174;51.588;7.328;2022-07-23T12:18:01;2.03;;;1.67;;
2326;SDS011;1174;51.588;7.328;2022-07-23T12:20:29;2.70;;;2.30;;
2326;SDS011;1174;51.588;7.328;2022-07-23T12:22:58;2.40;;;1.83;;
2326;SDS011;1174;51.588;7.328;2022-07-23T12:25:28;3.60;;;2.33;;
2326;SDS011;1174;51.588;7.328;2022-07-23T12:27:59;3.47;;;1.73;;
2326;SDS011;1174;51.588;7.328;2022-07-23T12:30:29;5.70;;;2.40;;
2326;SDS011;1174;51.588;7.328;2022-07-23T12:33:04;2.93;;;1.93;;
2326;SDS011;1174;51.588;7.328;2022-07-23T12:35:33;2.00;;;1.60;;
2326;SDS011;1174;51.588;7.328;2022-07-23T12:38:05;2.47;;;2.27;;
2326;SDS011;1174;51.588;7.328;2022-07-23T12:40:37;2.37;;;2.00;;
2326;SDS011;1174;51.588;7.328;2022-07-23T12:43:12;2.80;;;1.90;;
2326;SDS011;1174;51.588;7.328;2022-07-23T12:45:48;3.30;;;1.97;;
2326;SDS011;1174;51.588;7.328;2022-07-23T12:48:22;2.70;;;2.23;;
2326;SDS011;1174;51.588;7.328;2022-07-23T12:50:54;2.30;;;1.77;;
2326;SDS011;1174;51.588;7.328;2022-07-23T12:53:23;2.07;;;1.73;;
2326;SDS011;1174;51.588;7.328;2022-07-23T12:55:56;3.50;;;1.67;;
2326;SDS011;1174;51.588;7.328;2022-07-23T12:58:39;3.60;;;1.90;;
2326;SDS011;1174;51.588;7.328;2022-07-23T13:01:06;2.23;;;2.03;;
2326;SDS011;1174;51.588;7.328;2022-07-23T13:03:36;5.23;;;2.47;;
2326;SDS011;1174;51.588;7.328;2022-07-23T13:06:06;2.60;;;1.97;;
2326;SDS011;1174;51.588;7.328;2022-07-23T13:08:34;3.87;;;2.90;;
2326;SDS011;1174;51.588;7.328;2022-07-23T13:11:02;2.40;;;2.10;;
2326;SDS011;1174;51.588;7.328;2022-07-23T13:13:31;3.60;;;2.40;;
2326;SDS011;1174;51.588;7.328;2022-07-23T13:16:08;2.50;;;2.00;;
2326;SDS011;1174;51.588;7.328;2022-07-23T13:18:36;2.30;;;2.10;;
2326;SDS011;1174;51.588;7.328;2022-07-23T13:21:04;3.30;;;1.70;;
2326;SDS011;1174;51.588;7.328;2022-07-23T13:23:31;3.70;;;1.93;;
2326;SDS011;1174;51.588;7.328;2022-07-23T13:25:58;2.43;;;2.23;;
2326;SDS011;1174;51.588;7.328;2022-07-23T13:28:29;2.20;;;1.90;;
2326;SDS011;1174;51.588;7.328;2022-07-23T13:30:56;2.93;;;2.30;;
2326;SDS011;1174;51.588;7.328;2022-07-23T13:33:25;3.30;;;2.37;;
2326;SDS011;1174;51.588;7.328;2022-07-23T13:35:57;2.00;;;1.80;;
2326;SDS011;1174;51.588;7.328;2022-07-23T13:38:28;3.50;;;2.43;;
2326;SDS011;1174;51.588;7.328;2022-07-23T13:40:55;2.63;;;2.43;;
2326;SDS011;1174;51.588;7.328;2022-07-23T13:43:23;6.27;;;5.77;;
2326;SDS011;1174;51.588;7.328;2022-07-23T13:45:51;2.20;;;1.80;;
2326;SDS011;1174;51.588;7.328;2022-07-23T13:48:19;4.10;;;2.30;;
2326;SDS011;1174;51.588;7.328;2022-07-23T13:50:46;2.00;;;1.77;;
2326;SDS011;1174;51.588;7.328;2022-07-23T13:53:19;3.60;;;1.93;;
2326;SDS011;1174;51.588;7.328;2022-07-23T13:55:47;3.33;;;1.93;;
2326;SDS011;1174;51.588;7.328;2022-07-23T13:58:15;2.07;;;1.87;;
2326;SDS011;1174;51.588;7.328;2022-07-23T14:00:44;2.47;;;2.27;;
2326;SDS011;1174;51.588;7.328;2022-07-23T14:03:14;3.27;;;1.80;;
2326;SDS011;1174;51.588;7.328;2022-07-23T14:05:41;2.13;;;1.93;;
2326;SDS011;1174;51.588;7.328;2022-07-23T14:08:08;2.20;;;2.00;;
2326;SDS011;1174;51.588;7.328;2022-07-23T14:10:37;3.50;;;2.33;;
2326;SDS011;1174;51.588;7.328;2022-07-23T14:13:03;2.50;;;2.13;;
2326;SDS011;1174;51.588;7.328;2022-07-23T14:15:31;2.87;;;1.93;;
2326;SDS011;1174;51.588;7.328;2022-07-23T14:17:58;2.90;;;2.10;;
2326;SDS011;1174;51.588;7.328;2022-07-23T14:20:25;3.03;;;2.57;;
2326;SDS011;1174;51.588;7.328;2022-07-23T14:22:52;2.37;;;2.17;;
2326;SDS011;1174;51.588;7.328;2022-07-23T14:25:20;2.50;;;1.90;;
2326;SDS011;1174;51.588;7.328;2022-07-23T14:27:49;4.23;;;3.63;;
2326;SDS011;1174;51.588;7.328;2022-07-23T14:30:15;2.20;;;1.90;;
2326;SDS011;1174;51.588;7.328;2022-07-23T14:32:42;2.70;;;2.40;;
2326;SDS011;1174;51.588;7.328;2022-07-23T14:35:09;2.13;;;1.93;;
2326;SDS011;1174;51.588;7.328;2022-07-23T14:37:36;3.37;;;2.67;;
2326;SDS011;1174;51.588;7.328;2022-07-23T14:40:05;2.70;;;2.33;;
2326;SDS011;1174;51.588;7.328;2022-07-23T14:42:32;2.87;;;1.80;;
2326;SDS011;1174;51.588;7.328;2022-07-23T14:45:00;4.03;;;2.30;;
2326;SDS011;1174;51.588;7.328;2022-07-23T14:47:29;2.67;;;2.10;;
2326;SDS011;1174;51.588;7.328;2022-07-23T14:49:56;3.60;;;2.80;;
2326;SDS011;1174;51.588;7.328;2022-07-23T14:52:23;7.73;;;2.53;;
2326;SDS011;1174;51.588;7.328;2022-07-23T14:54:50;5.87;;;3.53;;
2326;SDS011;1174;51.588;7.328;2022-07-23T14:57:16;3.07;;;2.23;;
2326;SDS011;1174;51.588;7.328;2022-07-23T14:59:43;3.63;;;2.27;;
2326;SDS011;1174;51.588;7.328;2022-07-23T15:02:11;3.87;;;3.27;;
2326;SDS011;1174;51.588;7.328;2022-07-23T15:04:38;3.93;;;2.83;;
2326;SDS011;1174;51.588;7.328;2022-07-23T15:07:05;2.50;;;2.30;;
2326;SDS011;1174;51.588;7.328;2022-07-23T15:09:32;2.70;;;2.50;;
2326;SDS011;1174;51.588;7.328;2022-07-23T15:12:00;3.77;;;2.80;;
2326;SDS011;1174;51.588;7.328;2022-07-23T15:14:27;3.43;;;2.90;;
2326;SDS011;1174;51.588;7.328;2022-07-23T15:16:53;3.30;;;2.07;;
2326;SDS011;1174;51.588;7.328;2022-07-23T15:19:22;2.87;;;1.97;;
2326;SDS011;1174;51.588;7.328;2022-07-23T15:21:48;3.33;;;2.20;;
2326;SDS011;1174;51.588;7.328;2022-07-23T15:24:15;3.00;;;2.20;;
2326;SDS011;1174;51.588;7.328;2022-07-23T15:26:42;4.27;;;3.87;;
2326;SDS011;1174;51.588;7.328;2022-07-23T15:29:09;2.50;;;2.30;;
2326;SDS011;1174;51.588;7.328;2022-07-23T15:31:36;2.87;;;2.50;;